Time;durP1;ratioP1;P1;durP2;ratioP2;P2;SDS_P1;SDS_P2;PMS_P1;PMS_P2;Temp;Humidity;BMP_temperature;BMP_pressure;BME280_temperature;BME280_humidity;BME280_pressure;Samples;Min_cycle;Max_cycle;Signal;HPM_P1;HPM_P2
2023/08/05 00:00:12;;;;;;;10.48;5.57;;;;;;;25.67;49.29;98704.03;6294331;22;20058;-95
2023/08/05 00:02:37;;;;;;;6.28;5.18;;;;;;;25.61;50.02;98703.59;6268513;22;20066;-95
2023/08/05 00:05:04;;;;;;;5.57;4.97;;;;;;;25.66;50.46;98698.91;6271641;22;20375;-94
2023/08/05 00:07:32;;;;;;;7.95;5.28;;;;;;;25.63;50.44;98694.97;6272151;22;19995;-96
2023/08/05 00:10:06;;;;;;;6.53;4.82;;;;;;;25.76;49.92;98687.13;6267901;22;20003;-96
2023/08/05 00:13:03;;;;;;;6.60;5.55;;;;;;;25.95;48.62;98694.31;6271884;22;20148;-96
2023/08/05 00:15:29;;;;;;;9.13;5.93;;;;;;;25.64;49.87;98682.75;6276872;22;19991;-96
2023/08/05 00:17:57;;;;;;;6.75;4.95;;;;;;;25.66;49.57;98685.91;6271751;22;20035;-96
2023/08/05 00:20:26;;;;;;;7.85;5.82;;;;;;;25.53;50.32;98679.94;6266026;22;20420;-95
2023/08/05 00:22:55;;;;;;;11.57;7.57;;;;;;;25.51;50.35;98678.75;6265492;22;20073;-96
2023/08/05 00:25:20;;;;;;;9.57;5.43;;;;;;;25.48;50.99;98685.00;6267985;22;19991;-94
2023/08/05 00:27:46;;;;;;;6.90;5.28;;;;;;;25.73;50.50;98694.22;6266693;22;20003;-96
2023/08/05 00:30:36;;;;;;;8.95;5.10;;;;;;;25.74;49.80;98684.75;6267572;22;19994;-94
2023/08/05 00:33:02;;;;;;;7.65;4.90;;;;;;;25.59;50.44;98680.38;6267911;22;20084;-94
2023/08/05 00:35:28;;;;;;;8.70;5.00;;;;;;;25.46;50.95;98674.38;6267132;22;20003;-95
2023/08/05 00:37:56;;;;;;;7.93;4.88;;;;;;;25.29;50.86;98666.78;6266229;22;19998;-95
2023/08/05 00:40:22;;;;;;;6.38;5.22;;;;;;;25.13;51.40;98670.63;6266920;22;19998;-94
2023/08/05 00:42:56;;;;;;;6.22;5.07;;;;;;;25.08;51.78;98665.44;6269390;22;20066;-96
2023/08/05 00:45:35;;;;;;;7.57;4.90;;;;;;;25.30;51.24;98658.16;6268188;22;20002;-96
2023/08/05 00:48:03;;;;;;;17.25;7.75;;;;;;;25.15;51.80;98671.03;6267421;22;20429;-94
2023/08/05 00:50:38;;;;;;;6.75;5.40;;;;;;;25.02;52.15;98665.00;6265936;22;20005;-96
2023/08/05 00:53:14;;;;;;;6.15;4.70;;;;;;;24.92;52.21;98656.69;6269847;22;20017;-96
2023/08/05 00:55:46;;;;;;;7.75;5.90;;;;;;;24.99;52.24;98656.75;6272691;22;19999;-96
2023/08/05 00:58:55;;;;;;;10.60;6.70;;;;;;;24.90;52.22;98637.00;6336091;22;20005;-96
2023/08/05 01:01:31;;;;;;;11.20;6.38;;;;;;;25.05;52.71;98669.00;6309689;22;19987;-96
2023/08/05 01:03:57;;;;;;;15.25;8.82;;;;;;;24.84;54.25;98647.59;6208484;23;20419;-96
2023/08/05 01:06:43;;;;;;;9.68;5.57;;;;;;;24.75;54.02;98638.84;6217223;22;20040;-96
2023/08/05 01:09:19;;;;;;;6.10;5.18;;;;;;;24.68;53.51;98622.28;6232604;23;19999;-96
2023/08/05 01:12:00;;;;;;;5.75;4.70;;;;;;;24.70;53.40;98647.47;6189498;23;20011;-96
2023/08/05 01:14:50;;;;;;;6.75;5.47;;;;;;;24.46;53.54;98619.31;6201162;23;20099;-96
2023/08/05 01:20:56;;;;;;;7.95;5.35;;;;;;;24.41;53.08;98592.94;6103111;23;20006;-96
2023/08/05 01:41:06;;;;;;;7.53;5.88;;;;;;;24.69;51.14;98574.31;6308769;22;20107;-95
2023/08/05 01:43:41;;;;;;;7.55;4.80;;;;;;;24.69;50.87;98588.84;6200594;22;20385;-90
2023/08/05 01:46:06;;;;;;;7.50;5.22;;;;;;;24.72;51.67;98581.81;6233284;22;20007;-89
2023/08/05 01:48:32;;;;;;;5.55;4.60;;;;;;;24.65;51.18;98582.53;6257478;22;20003;-89
2023/08/05 01:50:58;;;;;;;7.95;5.10;;;;;;;24.75;47.91;98573.56;6231974;22;20033;-88
2023/08/05 01:53:32;;;;;;;7.18;5.22;;;;;;;24.84;48.50;98584.25;6230198;22;20384;-89
2023/08/05 01:55:57;;;;;;;7.13;5.10;;;;;;;24.86;49.00;98581.91;6234201;22;20027;-89
2023/08/05 01:58:26;;;;;;;5.32;4.15;;;;;;;24.92;48.57;98590.59;6230491;22;20006;-87
2023/08/05 02:01:00;;;;;;;6.57;4.40;;;;;;;24.91;48.61;98584.28;6232004;22;20350;-89
2023/08/05 02:03:25;;;;;;;5.13;4.22;;;;;;;24.88;47.18;98576.00;6231764;22;20099;-89
2023/08/05 02:06:00;;;;;;;4.82;3.72;;;;;;;25.05;46.96;98602.88;6231970;22;20000;-88
2023/08/05 02:08:31;;;;;;;5.50;3.92;;;;;;;24.90;47.65;98584.66;6256426;22;20444;-88
2023/08/05 02:10:59;;;;;;;5.95;4.30;;;;;;;24.78;49.10;98586.56;6232236;22;20441;-87
2023/08/05 02:13:33;;;;;;;4.78;4.03;;;;;;;24.74;48.79;98580.25;6231042;22;20380;-87
2023/08/05 02:15:58;;;;;;;4.80;4.20;;;;;;;24.65;47.47;98576.25;6234784;22;20003;-88
2023/08/05 02:18:24;;;;;;;6.10;4.03;;;;;;;24.88;46.99;98600.78;6230391;22;20042;-87
2023/08/05 02:20:49;;;;;;;6.53;3.80;;;;;;;24.87;46.37;98586.22;6230692;22;20395;-88
2023/08/05 02:23:18;;;;;;;5.65;4.05;;;;;;;24.69;46.91;98571.56;6256645;22;20054;-88
2023/08/05 02:28:31;;;;;;;7.45;4.28;;;;;;;24.79;47.26;98577.13;6264165;22;20007;-87
2023/08/05 02:30:57;;;;;;;5.97;3.67;;;;;;;24.87;46.68;98583.47;6230806;22;20430;-87
2023/08/05 02:33:22;;;;;;;5.55;4.00;;;;;;;24.92;47.26;98585.88;6230737;22;20346;-87
2023/08/05 02:35:48;;;;;;;7.30;3.92;;;;;;;24.91;46.18;98583.50;6230380;22;20004;-86
2023/08/05 02:38:16;;;;;;;5.38;3.50;;;;;;;24.89;45.74;98583.09;6255174;22;20372;-88
2023/08/05 02:40:41;;;;;;;6.95;3.10;;;;;;;24.90;45.35;98595.69;6228846;22;20018;-88
2023/08/05 02:43:07;;;;;;;3.85;3.17;;;;;;;24.84;45.11;98591.72;6257358;22;19999;-88
2023/08/05 02:45:32;;;;;;;4.20;3.40;;;;;;;24.81;45.79;98601.53;6257015;22;19980;-88
2023/08/05 02:47:58;;;;;;;5.20;3.38;;;;;;;24.76;44.90;98597.19;6230892;22;20052;-86
2023/08/05 02:50:23;;;;;;;7.55;3.40;;;;;;;24.76;45.35;98596.41;6230894;22;20417;-86
2023/08/05 02:52:49;;;;;;;3.90;3.17;;;;;;;24.70;45.68;98609.72;6229815;22;19999;-87
2023/08/05 02:55:17;;;;;;;5.65;3.80;;;;;;;24.43;47.14;98587.06;6256428;22;19999;-88
2023/08/05 02:57:45;;;;;;;5.45;3.60;;;;;;;24.43;46.54;98600.03;6229554;22;20015;-88
2023/08/05 03:00:12;;;;;;;5.60;3.78;;;;;;;24.48;46.65;98611.47;6256251;22;20006;-87
2023/08/05 03:02:40;;;;;;;3.83;3.03;;;;;;;24.54;46.48;98614.69;6230519;22;20429;-87
2023/08/05 03:05:06;;;;;;;4.40;3.45;;;;;;;24.42;45.38;98590.97;6231546;22;20422;-87
2023/08/05 03:07:32;;;;;;;5.93;3.20;;;;;;;24.53;45.42;98596.59;6231588;22;20011;-87
2023/08/05 03:09:57;;;;;;;4.72;2.88;;;;;;;24.38;44.80;98579.97;6228098;22;20499;-87
2023/08/05 03:12:26;;;;;;;5.15;3.22;;;;;;;24.46;44.20;98600.06;6230816;22;20003;-87
2023/08/05 03:14:52;;;;;;;5.45;2.70;;;;;;;24.51;43.02;98610.75;6255897;22;20042;-86
2023/08/05 03:17:26;;;;;;;5.80;3.03;;;;;;;24.38;42.56;98584.66;6230810;22;20069;-87
2023/08/05 03:19:52;;;;;;;3.63;2.67;;;;;;;24.39;42.45;98600.00;6230064;22;20000;-86
2023/08/05 03:22:18;;;;;;;4.38;2.65;;;;;;;24.40;42.40;98602.38;6230940;22;20019;-87
2023/08/05 03:24:49;;;;;;;5.35;2.50;;;;;;;24.43;41.68;98616.56;6230049;22;20414;-88
2023/08/05 03:27:15;;;;;;;3.75;2.72;;;;;;;24.21;41.69;98586.09;6230850;22;20003;-88
2023/08/05 03:29:40;;;;;;;4.20;2.60;;;;;;;24.27;41.63;98598.31;6255899;22;20002;-86
2023/08/05 03:32:08;;;;;;;5.40;3.67;;;;;;;24.30;41.74;98614.09;6256434;22;19996;-86
2023/08/05 03:34:37;;;;;;;5.13;2.25;;;;;;;24.26;41.64;98607.75;6253958;22;20014;-89
2023/08/05 03:37:03;;;;;;;4.72;2.40;;;;;;;24.26;41.87;98593.19;6257034;22;19996;-87
2023/08/05 03:39:35;;;;;;;2.97;2.00;;;;;;;24.38;40.24;98603.91;6231017;22;20003;-88
2023/08/05 03:42:01;;;;;;;;;;;;;;;24.47;39.61;98623.66;6230807;22;20027;-88
2023/08/05 03:44:26;;;;;;;2.72;1.92;;;;;;;24.35;38.69;98605.47;6281840;22;19956;-94
2023/08/05 03:46:52;;;;;;;2.60;1.70;;;;;;;24.36;38.08;98601.56;6232164;22;20407;-94
2023/08/05 03:49:18;;;;;;;3.92;1.77;;;;;;;24.41;36.93;98603.16;6258126;22;20003;-93
2023/08/05 03:51:46;;;;;;;3.13;1.58;;;;;;;24.36;36.92;98598.00;6233731;22;20032;-96
2023/08/05 03:54:12;;;;;;;3.00;2.03;;;;;;;24.48;37.06;98624.44;6234427;22;20172;-95
2023/08/05 03:56:38;;;;;;;2.88;1.63;;;;;;;24.25;36.52;98592.41;6233314;22;19999;-96
2023/08/05 04:24:07;;;;;;;4.10;1.70;;;;;;;24.57;35.91;98612.00;6341895;22;20014;-96
2023/08/05 04:27:45;;;;;;;5.93;1.88;;;;;;;24.57;36.33;98606.47;6288716;22;20075;-96
2023/08/05 04:30:15;;;;;;;3.33;1.58;;;;;;;24.63;34.77;98612.41;6178851;23;20005;-96
2023/08/05 04:32:59;;;;;;;4.07;1.63;;;;;;;24.73;34.93;98602.66;6163758;22;20008;-96
2023/08/05 04:35:43;;;;;;;3.00;1.50;;;;;;;24.63;34.10;98595.09;6235850;23;20060;-96
2023/08/05 04:38:09;;;;;;;2.92;2.15;;;;;;;24.90;34.73;98617.72;6169919;23;20012;-89
2023/08/05 04:40:50;;;;;;;2.55;1.55;;;;;;;24.92;34.93;98607.09;6191667;23;20062;-88
2023/08/05 04:43:18;;;;;;;3.78;1.83;;;;;;;25.11;34.39;98609.59;6166027;23;20494;-88
2023/08/05 04:45:54;;;;;;;2.50;1.52;;;;;;;25.24;35.13;98612.84;6167676;23;20035;-89
2023/08/05 04:48:25;;;;;;;4.47;2.03;;;;;;;25.33;33.60;98620.75;6168175;23;20091;-88
2023/08/05 04:51:04;;;;;;;7.90;2.45;;;;;;;25.26;34.08;98617.97;6167804;23;20513;-88
2023/08/05 04:53:32;;;;;;;2.55;1.70;;;;;;;25.37;33.32;98614.09;6166606;23;20012;-87
2023/08/05 04:56:02;;;;;;;2.72;1.80;;;;;;;25.41;32.93;98616.88;6191118;23;20005;-88
2023/08/05 04:58:28;;;;;;;4.07;2.08;;;;;;;25.53;34.18;98624.00;6190660;23;20001;-88
2023/08/05 05:00:57;;;;;;;3.10;2.05;;;;;;;25.50;33.29;98606.25;6214692;22;20049;-88
2023/08/05 05:03:27;;;;;;;5.68;2.47;;;;;;;25.57;34.58;98609.06;6203470;22;20357;-92
2023/08/05 05:06:08;;;;;;;4.22;2.22;;;;;;;25.67;33.42;98606.72;6273103;22;20443;-87
2023/08/05 05:08:36;;;;;;;4.63;2.13;;;;;;;25.85;33.83;98621.34;6271794;22;19998;-89
2023/08/05 05:11:14;;;;;;;4.32;2.47;;;;;;;25.95;33.96;98630.88;6265559;22;20441;-87
2023/08/05 05:13:46;;;;;;;3.95;2.13;;;;;;;25.95;33.98;98620.63;6266088;22;20513;-87
2023/08/05 05:16:23;;;;;;;3.33;1.98;;;;;;;26.14;33.13;98640.78;6264062;22;20010;-88
2023/08/05 05:18:55;;;;;;;5.50;2.72;;;;;;;26.15;33.22;98615.56;6268935;22;19995;-87
2023/08/05 05:21:24;;;;;;;4.25;2.13;;;;;;;26.29;33.29;98627.78;6264438;22;20110;-87
2023/08/05 05:23:50;;;;;;;3.08;1.90;;;;;;;26.38;32.21;98611.66;6263069;22;20029;-88
2023/08/05 05:26:18;;;;;;;3.13;2.17;;;;;;;26.50;32.33;98629.78;6263134;22;20002;-87
2023/08/05 05:28:50;;;;;;;4.25;2.08;;;;;;;26.50;33.68;98619.53;6263538;22;20003;-88
2023/08/05 05:31:15;;;;;;;;;;;;;;;26.70;32.24;98635.72;6263366;22;19998;-87
2023/08/05 05:33:42;;;;;;;4.80;1.75;;;;;;;26.56;32.34;98608.88;6287198;22;19909;-88
2023/08/05 05:36:19;;;;;;;4.43;2.00;;;;;;;26.66;32.02;98613.63;6266224;22;20003;-93
2023/08/05 05:38:45;;;;;;;3.58;1.80;;;;;;;26.77;32.44;98608.91;6270176;22;20037;-96
2023/08/05 05:41:15;;;;;;;2.97;1.80;;;;;;;26.80;32.32;98608.09;6267149;22;20003;-92
2023/08/05 05:43:49;;;;;;;8.25;2.05;;;;;;;26.84;32.81;98607.31;6265614;22;20005;-93
2023/08/05 05:46:19;;;;;;;29.10;4.88;;;;;;;26.87;32.93;98607.28;6267765;22;20001;-90
2023/08/05 05:48:57;;;;;;;4.57;2.00;;;;;;;26.87;32.40;98592.69;6263486;22;19999;-92
2023/08/05 05:51:22;;;;;;;5.57;2.30;;;;;;;27.10;33.43;98608.84;6264803;22;19998;-95
2023/08/05 05:53:51;;;;;;;3.90;2.17;;;;;;;27.10;32.98;98589.50;6262868;22;20002;-96
2023/08/05 05:56:20;;;;;;;4.85;2.30;;;;;;;27.31;32.53;98588.66;6273214;22;20030;-96
2023/08/05 05:58:51;;;;;;;4.43;2.67;;;;;;;27.44;32.64;98589.81;6274801;22;19999;-96
2023/08/05 06:01:24;;;;;;;3.83;1.92;;;;;;;27.52;33.19;98583.06;6294627;22;20003;-96
2023/08/05 06:04:11;;;;;;;6.75;2.50;;;;;;;27.64;33.39;98581.03;6274714;22;20483;-94
2023/08/05 06:06:40;;;;;;;3.30;1.77;;;;;;;27.71;33.40;98581.00;6275612;22;19999;-96
2023/08/05 06:09:34;;;;;;;4.22;2.33;;;;;;;27.89;33.91;98598.31;6278544;22;20002;-96
2023/08/05 06:12:04;;;;;;;5.50;2.63;;;;;;;27.92;34.03;98591.97;6216188;23;20004;-96
2023/08/05 06:14:33;;;;;;;4.05;2.22;;;;;;;27.86;33.73;98574.22;6209178;23;20008;-96
2023/08/05 06:17:01;;;;;;;3.03;2.03;;;;;;;28.03;33.74;98572.53;6206403;23;20271;-96
2023/08/05 06:23:09;;;;;;;5.35;2.22;;;;;;;28.10;34.11;98580.78;6200068;23;20095;-96
2023/08/05 06:26:33;;;;;;;;;;;;;;;;;;;;;
2023/08/05 06:41:21;;;;;;;3.47;2.20;;;;;;;28.71;34.84;98572.00;6295797;22;20023;-96
2023/08/05 06:44:06;;;;;;;;;;;;;;;;;;;;;
2023/08/05 06:46:37;;;;;;;3.05;2.00;;;;;;;28.89;34.74;98573.78;6302751;22;20018;-95
2023/08/05 06:49:03;;;;;;;5.90;2.42;;;;;;;29.05;34.61;98573.25;6265375;22;20082;-95
2023/08/05 06:51:31;;;;;;;3.97;2.63;;;;;;;29.08;33.99;98556.56;6268047;22;20103;-96
2023/08/05 06:53:57;;;;;;;3.50;2.20;;;;;;;29.12;33.76;98568.44;6275587;22;20005;-96
2023/08/05 06:56:23;;;;;;;3.03;2.20;;;;;;;29.23;33.93;98565.53;6270055;22;19995;-96
2023/08/05 06:58:49;;;;;;;4.53;2.60;;;;;;;29.50;34.40;98589.78;6271535;22;20062;-96
2023/08/05 07:01:15;;;;;;;4.68;2.40;;;;;;;29.42;34.22;98553.03;6270814;22;20345;-94
2023/08/05 07:03:42;;;;;;;5.38;2.58;;;;;;;29.67;33.76;98574.09;6268550;22;20006;-95
2023/08/05 07:06:15;;;;;;;4.20;2.22;;;;;;;29.60;32.64;98561.91;6269286;22;19995;-95
2023/08/05 07:08:41;;;;;;;4.40;2.30;;;;;;;29.62;33.24;98550.38;6298428;22;19998;-96
2023/08/05 07:11:09;;;;;;;3.15;2.05;;;;;;;29.75;32.85;98539.53;6273429;22;20076;-96
2023/08/05 07:13:36;;;;;;;4.55;2.30;;;;;;;30.00;32.84;98553.81;6269509;22;19988;-96
2023/08/05 07:16:02;;;;;;;2.67;2.30;;;;;;;30.13;32.86;98561.56;6205525;22;20081;-95
2023/08/05 07:18:29;;;;;;;5.30;2.30;;;;;;;30.22;31.74;98564.59;6208511;22;20497;-95
2023/08/05 07:20:55;;;;;;;2.90;2.10;;;;;;;30.30;31.90;98543.06;6210026;22;20566;-95
2023/08/05 07:23:21;;;;;;;3.10;2.25;;;;;;;30.39;31.79;98530.22;6233798;22;20000;-96
2023/08/05 07:25:46;;;;;;;3.47;2.35;;;;;;;30.56;32.53;98539.44;6209772;22;20007;-96
2023/08/05 07:28:12;;;;;;;3.60;2.28;;;;;;;30.55;31.71;98531.56;6212890;22;20014;-96
2023/08/05 07:30:38;;;;;;;3.83;2.20;;;;;;;30.67;31.19;98552.34;6235573;22;20463;-94
2023/08/05 07:33:14;;;;;;;4.75;2.40;;;;;;;30.86;31.59;98553.59;6216518;22;20007;-94
2023/08/05 07:35:44;;;;;;;4.40;2.25;;;;;;;30.67;30.75;98550.34;6247313;22;20010;-95
2023/08/05 07:38:09;;;;;;;3.35;2.10;;;;;;;30.79;31.14;98552.50;6220810;22;20011;-95
2023/08/05 07:40:40;;;;;;;3.63;2.35;;;;;;;30.82;30.84;98520.31;6221936;22;20004;-96
2023/08/05 07:43:15;;;;;;;5.72;2.13;;;;;;;30.87;31.40;98519.84;6247733;22;20023;-88
2023/08/05 07:45:40;;;;;;;3.55;1.85;;;;;;;31.10;31.05;98540.47;6213041;22;19984;-87
2023/08/05 07:48:08;;;;;;;3.47;2.20;;;;;;;31.17;31.44;98534.75;6209332;22;20026;-89
2023/08/05 07:50:34;;;;;;;4.38;2.05;;;;;;;31.15;31.30;98534.38;6234255;22;20000;-90
2023/08/05 07:53:04;;;;;;;2.85;2.35;;;;;;;31.34;31.00;98549.53;6210676;22;20000;-87
2023/08/05 07:55:34;;;;;;;5.60;2.22;;;;;;;31.34;30.73;98541.94;6210440;22;20049;-89
2023/08/05 07:58:04;;;;;;;3.42;1.98;;;;;;;31.38;30.44;98530.75;6236699;22;19995;-88
2023/08/05 08:00:30;;;;;;;3.40;2.28;;;;;;;31.47;30.05;98530.97;6208501;22;20006;-87
2023/08/05 08:02:56;;;;;;;3.10;2.30;;;;;;;31.46;30.49;98523.84;6209795;22;20000;-87
2023/08/05 08:05:24;;;;;;;2.80;2.22;;;;;;;31.43;30.21;98510.75;6234200;22;20010;-87
2023/08/05 08:07:50;;;;;;;6.35;2.47;;;;;;;31.62;30.51;98526.66;6208234;22;20051;-87
2023/08/05 08:10:16;;;;;;;7.63;2.55;;;;;;;31.51;30.99;98505.84;6209216;22;20004;-89
2023/08/05 08:12:44;;;;;;;3.65;2.17;;;;;;;31.66;30.62;98514.66;6233877;22;20034;-88
2023/08/05 08:15:10;;;;;;;4.25;2.38;;;;;;;31.62;30.38;98509.94;6202656;23;20106;-88
2023/08/05 08:17:36;;;;;;;4.53;2.25;;;;;;;31.76;29.48;98519.97;6177534;23;20322;-88
2023/08/05 08:20:03;;;;;;;5.95;2.28;;;;;;;31.65;31.21;98504.72;6190596;23;20058;-96
2023/08/05 08:22:29;;;;;;;3.70;2.17;;;;;;;31.92;29.61;98526.81;6189208;23;20527;-94
2023/08/05 08:24:55;;;;;;;3.35;2.20;;;;;;;32.07;29.66;98516.13;6180256;23;20000;-88
2023/08/05 08:27:20;;;;;;;6.70;2.20;;;;;;;32.00;30.18;98492.81;6179989;23;19996;-88
2023/08/05 08:29:46;;;;;;;2.70;1.80;;;;;;;32.19;29.94;98512.66;6209012;23;19996;-90
2023/08/05 08:32:11;;;;;;;5.63;2.33;;;;;;;32.33;28.38;98509.50;6179061;23;19996;-88
2023/08/05 08:34:44;;;;;;;4.13;2.20;;;;;;;32.35;27.93;98495.91;6208748;23;20004;-93
2023/08/05 08:37:13;;;;;;;2.55;2.00;;;;;;;32.56;27.34;98504.94;6187438;23;20000;-96
2023/08/05 08:39:38;;;;;;;4.60;2.03;;;;;;;32.67;27.75;98499.09;6181866;23;20024;-88
2023/08/05 08:42:04;;;;;;;2.72;2.03;;;;;;;32.60;28.09;98481.34;6227643;23;20000;-88
2023/08/05 08:44:30;;;;;;;2.55;1.67;;;;;;;32.69;27.36;98505.00;6203660;23;19992;-88
2023/08/05 08:46:56;;;;;;;2.38;1.80;;;;;;;32.67;27.70;98477.56;6179332;23;20004;-88
2023/08/05 08:49:21;;;;;;;2.33;1.70;;;;;;;32.67;26.37;98485.94;6179360;23;20026;-89
2023/08/05 08:51:47;;;;;;;4.15;1.90;;;;;;;32.75;26.70;98481.72;6202283;23;20445;-89
2023/08/05 08:54:20;;;;;;;2.72;1.52;;;;;;;32.75;25.50;98492.88;6228766;23;20073;-89
2023/08/05 08:56:45;;;;;;;1.95;1.40;;;;;;;32.82;25.28;98484.31;6175026;23;20332;-89
2023/08/05 08:59:11;;;;;;;2.13;1.67;;;;;;;32.98;25.15;98477.13;6198362;23;20065;-94
2023/08/05 09:01:39;;;;;;;1.95;1.55;;;;;;;33.20;25.18;98478.09;6173314;23;19997;-90
2023/08/05 09:04:05;;;;;;;3.08;1.55;;;;;;;33.26;24.52;98471.94;6172353;23;19996;-90
2023/08/05 09:06:31;;;;;;;3.95;1.50;;;;;;;33.24;24.47;98468.81;6196929;23;20040;-88
2023/08/05 09:08:57;;;;;;;1.98;1.30;;;;;;;33.17;24.32;98469.81;6196699;23;20042;-87
2023/08/05 09:11:27;;;;;;;2.40;1.58;;;;;;;33.31;24.61;98463.00;6198001;23;20007;-90
2023/08/05 09:13:53;;;;;;;2.17;1.75;;;;;;;33.30;24.91;98470.59;6177187;22;20034;-93
2023/08/05 09:16:21;;;;;;;2.13;1.60;;;;;;;33.42;24.76;98467.03;6227468;22;20003;-88
2023/08/05 09:18:55;;;;;;;3.50;1.52;;;;;;;33.44;24.36;98469.38;6226601;22;20076;-88
2023/08/05 09:21:24;;;;;;;1.92;1.30;;;;;;;33.42;24.17;98471.84;6204389;22;19995;-88
2023/08/05 09:23:50;;;;;;;2.50;1.58;;;;;;;33.31;23.86;98446.25;6254063;22;20000;-88
2023/08/05 09:26:28;;;;;;;11.02;6.07;;;;;;;33.29;24.27;98455.09;6228112;22;20030;-88
2023/08/05 09:28:58;;;;;;;2.35;1.33;;;;;;;33.40;24.20;98461.13;6202548;22;20007;-88
2023/08/05 09:31:25;;;;;;;1.85;1.58;;;;;;;33.40;23.44;98460.34;6203137;22;19979;-88
2023/08/05 09:33:51;;;;;;;2.50;1.35;;;;;;;33.47;23.43;98443.34;6227585;22;20434;-89
2023/08/05 09:36:22;;;;;;;1.90;1.40;;;;;;;33.47;23.89;98440.56;6202014;22;20008;-88
2023/08/05 09:39:02;;;;;;;3.35;1.60;;;;;;;33.71;24.11;98448.66;6235733;22;20076;-88
2023/08/05 09:41:31;;;;;;;4.72;1.52;;;;;;;33.67;24.24;98443.16;6266761;22;20426;-88
2023/08/05 09:43:58;;;;;;;3.38;1.65;;;;;;;33.70;24.04;98439.47;6234831;22;20012;-87
2023/08/05 09:46:31;;;;;;;2.13;1.40;;;;;;;33.89;23.72;98454.44;6235390;22;20048;-89
2023/08/05 09:48:56;;;;;;;2.55;1.55;;;;;;;33.66;23.55;98441.63;6236682;22;20078;-88
2023/08/05 09:51:22;;;;;;;5.15;1.90;;;;;;;33.82;23.71;98435.88;6234261;22;20014;-89
2023/08/05 09:53:51;;;;;;;3.17;1.50;;;;;;;33.87;23.42;98433.75;6234761;22;19995;-89
2023/08/05 09:56:20;;;;;;;5.35;1.20;;;;;;;33.80;23.58;98446.72;6236515;22;20331;-94
2023/08/05 09:58:48;;;;;;;4.90;1.80;;;;;;;33.84;23.71;98445.84;6265545;22;20001;-96
2023/08/05 10:01:14;;;;;;;8.48;2.30;;;;;;;33.98;23.64;98448.16;6241239;22;20030;-94
2023/08/05 10:03:40;;;;;;;3.50;1.30;;;;;;;33.92;23.10;98453.50;6266861;22;20015;-95
2023/08/05 10:06:07;;;;;;;2.55;1.58;;;;;;;33.91;23.10;98449.19;6240740;22;20081;-92
2023/08/05 10:08:35;;;;;;;6.15;4.18;;;;;;;33.91;23.26;98437.19;6240524;22;20026;-94
2023/08/05 10:11:00;;;;;;;4.40;1.67;;;;;;;34.06;22.89;98448.69;6241383;22;20003;-94
2023/08/05 10:13:26;;;;;;;2.45;1.30;;;;;;;34.04;23.17;98432.38;6240302;22;20002;-95
2023/08/05 10:15:53;;;;;;;4.00;1.90;;;;;;;34.13;23.17;98440.09;6241658;22;20073;-94
2023/08/05 10:18:18;;;;;;;4.50;2.15;;;;;;;34.09;24.07;98437.38;6241585;22;19983;-95
2023/08/05 10:20:50;;;;;;;4.45;3.10;;;;;;;33.98;25.38;98409.81;6242488;22;19995;-95
2023/08/05 10:23:15;;;;;;;1.60;1.13;;;;;;;34.13;25.07;98409.34;6241370;22;20021;-93
2023/08/05 10:25:44;;;;;;;3.25;1.58;;;;;;;34.18;23.63;98428.31;6243827;22;19995;-93
2023/08/05 10:28:43;;;;;;;3.00;1.38;;;;;;;34.22;24.46;98413.03;6244154;22;19995;-94
2023/08/05 10:31:25;;;;;;;3.35;1.60;;;;;;;34.38;25.31;98422.44;6263612;22;20048;-94
2023/08/05 10:34:10;;;;;;;2.65;1.67;;;;;;;34.42;25.67;98421.09;6242749;22;19999;-95
2023/08/05 10:36:44;;;;;;;3.10;1.80;;;;;;;34.40;25.66;98408.81;6243820;22;20010;-92
2023/08/05 10:39:40;;;;;;;3.65;1.40;;;;;;;34.61;25.29;98424.00;6268302;22;20003;-92
2023/08/05 10:42:29;;;;;;;2.20;1.42;;;;;;;34.58;23.32;98422.16;6293648;22;20082;-92
2023/08/05 10:44:54;;;;;;;2.75;1.50;;;;;;;34.64;25.62;98409.16;6285904;22;19998;-92
2023/08/05 10:47:22;;;;;;;1.98;1.20;;;;;;;34.49;23.76;98405.28;6234930;22;20409;-94
2023/08/05 10:49:55;;;;;;;5.43;1.48;;;;;;;34.45;22.38;98407.44;6245596;22;20006;-94
2023/08/05 10:52:26;;;;;;;1.73;1.10;;;;;;;34.58;23.02;98405.38;6297958;22;19999;-93
2023/08/05 10:55:12;;;;;;;2.67;1.30;;;;;;;34.46;24.62;98395.81;6263376;22;20008;-95
2023/08/05 10:57:38;;;;;;;3.83;1.70;;;;;;;34.53;24.74;98414.31;6187530;23;20008;-95
2023/08/05 11:00:11;;;;;;;3.17;1.80;;;;;;;34.37;25.76;98390.94;6224545;23;20004;-94
2023/08/05 11:02:38;;;;;;;5.20;2.13;;;;;;;34.48;25.36;98389.75;6202273;23;20000;-94
2023/08/05 11:05:05;;;;;;;2.65;1.85;;;;;;;34.50;23.69;98387.28;6175480;23;20001;-94
2023/08/05 11:07:36;;;;;;;2.95;1.20;;;;;;;34.61;22.46;98396.06;6199514;23;20000;-94
2023/08/05 11:10:02;;;;;;;;;;;;;;;34.60;22.92;98398.06;6175704;23;20076;-95
2023/08/05 11:12:29;;;;;;;1.60;1.00;;;;;;;34.54;22.70;98374.75;6224242;23;19957;-95
2023/08/05 11:14:56;;;;;;;1.73;1.27;;;;;;;34.54;22.32;98363.56;6198898;22;20020;-93
2023/08/05 11:17:21;;;;;;;3.10;1.25;;;;;;;34.70;22.68;98368.19;6174192;23;20055;-95
2023/08/05 11:19:50;;;;;;;1.73;1.30;;;;;;;34.76;23.13;98352.38;6174070;23;20091;-94
2023/08/05 11:22:36;;;;;;;2.92;1.30;;;;;;;34.95;23.82;98364.44;6200173;23;20027;-95
2023/08/05 11:25:02;;;;;;;2.97;1.10;;;;;;;35.04;23.22;98371.31;6177637;22;20058;-95
2023/08/05 11:27:39;;;;;;;2.90;1.58;;;;;;;35.12;23.12;98367.00;6229218;22;20011;-94
2023/08/05 11:30:17;;;;;;;3.47;1.50;;;;;;;35.06;22.74;98375.19;6256251;22;20079;-94
2023/08/05 11:32:56;;;;;;;2.17;1.33;;;;;;;35.02;22.48;98366.16;6229851;22;20004;-95
2023/08/05 11:35:23;;;;;;;4.57;1.67;;;;;;;35.10;22.56;98373.03;6228830;22;19999;-94
2023/08/05 11:37:48;;;;;;;2.45;1.50;;;;;;;35.29;23.48;98361.94;6229688;22;20034;-95
2023/08/05 11:40:14;;;;;;;4.22;1.27;;;;;;;35.30;22.64;98347.50;6229767;22;19999;-94
2023/08/05 11:42:42;;;;;;;1.55;1.10;;;;;;;35.36;23.03;98342.06;6231459;22;20000;-95
2023/08/05 11:45:14;;;;;;;10.05;7.03;;;;;;;35.49;23.15;98348.31;6256740;22;20023;-94
2023/08/05 11:47:39;;;;;;;4.95;1.90;;;;;;;35.47;22.45;98350.81;6232272;22;20000;-93
2023/08/05 11:50:06;;;;;;;3.83;1.35;;;;;;;35.38;23.21;98347.97;6228959;22;20057;-93
2023/08/05 11:52:31;;;;;;;2.50;1.55;;;;;;;35.42;23.20;98326.22;6229699;22;20000;-94
2023/08/05 11:54:59;;;;;;;3.45;1.60;;;;;;;35.53;22.66;98329.34;6232942;22;19992;-94
2023/08/05 11:57:25;;;;;;;6.78;1.60;;;;;;;35.54;23.15;98322.50;6254513;22;20027;-94
2023/08/05 11:59:59;;;;;;;7.13;3.80;;;;;;;35.54;22.88;98327.31;6229543;22;20003;-93
2023/08/05 12:02:25;;;;;;;2.67;1.58;;;;;;;35.63;22.68;98344.13;6231102;22;20004;-94
2023/08/05 12:04:51;;;;;;;2.17;1.67;;;;;;;35.41;23.08;98321.88;6231725;22;20045;-94
2023/08/05 12:07:18;;;;;;;5.80;3.90;;;;;;;35.42;23.17;98334.59;6234062;22;20050;-94
2023/08/05 12:09:44;;;;;;;5.20;3.58;;;;;;;35.45;23.78;98324.50;6259192;22;19996;-94
2023/08/05 12:12:19;;;;;;;3.38;1.70;;;;;;;35.57;23.90;98329.97;6232884;22;19999;-94
2023/08/05 12:14:44;;;;;;;11.15;7.45;;;;;;;35.58;23.37;98320.31;6229841;22;20019;-93
2023/08/05 12:17:10;;;;;;;4.72;3.00;;;;;;;35.38;22.76;98303.97;6231197;22;19996;-95
2023/08/05 12:19:41;;;;;;;5.35;3.45;;;;;;;35.52;23.25;98313.78;6205216;22;20125;-94
2023/08/05 12:22:07;;;;;;;13.05;6.28;;;;;;;35.46;23.89;98296.03;6231141;22;20003;-93
2023/08/05 12:24:33;;;;;;;12.88;8.23;;;;;;;35.60;23.50;98317.84;6235951;22;19999;-95
2023/08/05 12:26:59;;;;;;;16.92;9.65;;;;;;;35.71;24.26;98316.63;6240757;22;19999;-96
2023/08/05 12:29:25;;;;;;;11.93;7.50;;;;;;;35.76;23.74;98316.81;6229445;22;20086;-94
2023/08/05 12:31:50;;;;;;;9.80;7.25;;;;;;;35.64;23.29;98300.91;6229955;22;20006;-93
2023/08/05 12:34:17;;;;;;;12.85;7.05;;;;;;;35.67;23.40;98302.78;6231459;22;20008;-94
2023/08/05 12:36:44;;;;;;;5.90;2.60;;;;;;;35.54;23.28;98283.28;6229285;22;20018;-94
2023/08/05 12:39:10;;;;;;;4.60;3.05;;;;;;;35.72;23.02;98293.00;6253599;22;20023;-94
2023/08/05 12:41:35;;;;;;;3.70;2.88;;;;;;;35.81;23.10;98293.75;6255513;22;20075;-94
2023/08/05 12:44:03;;;;;;;33.13;21.45;;;;;;;35.85;23.48;98284.44;6255662;22;20004;-94
2023/08/05 12:46:28;;;;;;;22.35;17.23;;;;;;;35.90;23.97;98276.16;6230312;22;20003;-95
2023/08/05 12:48:54;;;;;;;9.48;8.38;;;;;;;36.08;24.05;98285.81;6205850;22;20335;-95
2023/08/05 12:51:19;;;;;;;4.22;1.85;;;;;;;36.13;23.43;98268.34;6231291;22;20011;-94
2023/08/05 12:53:45;;;;;;;25.50;19.38;;;;;;;36.16;23.05;98285.06;6212025;22;20038;-95